Terminal Aerodrome Forecast
Issued by NWS Charleston, WV

Current Version | Previous Version | Graphics & Text | Print | Product List | Glossary On
Versions: 1 2 3 4 5 6 7 8 9 10 11 12 13 14 15 16 17 18 19 20 21 22 23 24 25
000
FTUS41 KRLX 280800 AAB
TAFHTS
TAF AMD
KHTS 280900Z 2809/2906 00000KT 1/2SM FG VV002
     FM281100 VRB03KT 1SM BR SCT002 BKN015
     FM281300 VRB03KT P6SM BKN020
     FM281400 04004KT P6SM SCT030=

USA.gov is the U.S. government's official web portal to all federal, state and local government web resources and services.